EW5580 Weather Reports


time (UTC)temp
F
wind
direction
speed
knots
gust
knots
rain 1hr
in
rain 24hr
in
rain mn
in
humidity
%
barometer
mb
20221128080540 52 250 3.5 10.4 0.00 0.68 0.00 87 991.7
20221128080041 53 317 3.5 9.6 0.00 0.68 0.00 87 991.6
20221128075638 53 265 3.5 9.6 0.00 0.68 0.00 87 991.5
20221128075037 53 269 3.5 10.4 0.00 0.68 0.00 86 991.6
20221128074547 53 249 4.3 11.3 0.00 0.68 0.00 86 991.5
20221128074036 53 306 1.7 11.3 0.00 0.68 0.00 86 991.6
20221128073535 53 265 1.7 10.4 0.00 0.68 0.00 86 991.5
20221128073034 53 275 0.9 10.4 0.00 0.68 0.00 86 991.3
20221128072533 53 269 2.6 7.8 0.00 0.68 0.00 86 991.3
20221128072132 54 270 1.7 7.0 0.00 0.68 0.00 86 991.2
20221128071530 54 197 2.6 7.8 0.00 0.68 0.00 86 991.0
20221128071031 54 260 3.5 7.0 0.00 0.68 0.00 86 991.0
20221128070530 54 243 1.7 9.6 0.00 0.68 0.00 86 991.0
20221128070028 54 259 3.5 9.6 0.00 0.68 0.00 86 990.9
20221128065527 54 273 1.7 10.4 0.00 0.68 0.00 86 990.8
20221128065026 54 254 2.6 10.4 0.00 0.68 0.00 86 990.7
20221128064527 54 265 2.6 11.3 0.00 0.68 0.00 87 990.7
20221128064027 54 258 0.9 11.3 0.00 0.68 0.00 87 990.6
20221128063524 54 238 2.6 13.0 0.00 0.68 0.00 87 990.5
20221128063026 54 259 5.2 13.0 0.00 0.68 0.00 88 990.5
20221128062523 54 237 1.7 11.3 0.00 0.68 0.00 89 990.5
20221128062021 54 263 1.7 7.0 0.00 0.68 0.00 89 990.4
20221128061531 54 264 0.9 6.1 0.00 0.68 0.00 89 990.4
20221128061024 55 256 2.6 8.7 0.00 0.68 0.00 88 990.3
20221128060519 55 244 0.0 7.0 0.00 0.68 0.00 88 990.3
20221128060032 55 202 0.9 13.0 0.00 0.68 0.00 87 990.3
20221128055518 55 272 3.5 13.0 0.00 0.68 0.00 87 990.4
20221128055017 56 244 2.6 9.6 0.00 0.68 0.00 87 990.2
20221128054518 56 243 3.5 14.8 0.00 0.68 0.00 86 990.2
20221128054018 56 259 5.2 14.8 0.00 0.68 0.00 86 989.9
20221128053513 56 276 2.6 8.7 0.00 0.68 0.00 88 990.0
20221128053013 56 254 4.3 12.2 0.00 0.68 0.00 88 989.9
20221128052512 56 232 4.3 12.2 0.00 0.68 0.00 90 990.0
20221128052013 56 265 4.3 11.3 0.00 0.68 0.00 91 990.1
20221128051509 56 248 2.6 7.0 0.00 0.68 0.00 92 989.9
20221128051009 56 259 3.5 7.0 0.00 0.68 0.00 93 989.7
20221128050508 56 17 1.7 11.3 0.00 0.68 0.00 94 989.6
20221128050006 57 259 1.7 11.3 0.00 0.68 0.00 94 989.4
20221128045504 57 250 1.7 7.0 0.00 0.68 0.68 95 989.2
20221128045005 57 309 0.0 9.6 0.00 0.68 0.68 96 989.3
20221128044504 57 231 2.6 9.6 0.00 0.68 0.68 96 989.0
20221128044006 57 282 3.5 12.2 0.00 0.68 0.68 96 988.9
20221128043504 57 256 3.5 11.3 0.00 0.68 0.68 97 988.9
20221128043002 57 273 7.0 11.3 0.00 0.68 0.68 98 989.0
20221128042504 57 281 2.6 8.7 0.00 0.68 0.68 99 989.1
20221128042001 57 253 0.9 11.3 0.01 0.68 0.68 99 989.0
20221128041600 56 195 2.6 11.3 0.02 0.68 0.68 99 989.1
20221128041059 56 272 0.9 4.3 0.03 0.68 0.68 98 989.1
20221128040559 55 282 0.9 3.5 0.04 0.68 0.68 98 989.1
20221128040059 55 277 0.0 2.6 0.06 0.68 0.68 98 989.0
20221128035558 55 277 0.0 3.5 0.08 0.68 0.68 98 989.1
20221128035057 55 279 0.9 4.3 0.10 0.68 0.68 98 989.1
20221128034616 55 192 0.0 4.3 0.11 0.68 0.68 98 989.2
20221128034055 55 206 0.9 3.5 0.12 0.68 0.68 98 989.4
20221128033556 55 259 0.0 1.7 0.16 0.68 0.68 98 989.5
20221128033059 55 288 0.0 0.0 0.18 0.68 0.68 98 989.7
20221128032554 55 288 0.0 0.0 0.23 0.68 0.68 97 989.9
20221128032053 55 288 0.0 1.7 0.26 0.67 0.67 97 989.7
20221128031554 55 288 0.0 6.1 0.27 0.66 0.66 98 990.2
20221128031051 55 310 0.9 6.1 0.28 0.65 0.65 98 990.6
20221128030652 55 268 0.9 6.1 0.28 0.64 0.64 98 990.7
20221128030053 55 245 0.9 3.5 0.26 0.61 0.61 98 990.9
20221128025551 55 305 0.9 3.5 0.25 0.60 0.60 98 990.8
20221128025053 55 288 1.7 7.0 0.23 0.57 0.57 98 990.8
20221128024551 55 277 1.7 5.2 0.23 0.56 0.56 98 990.7
20221128024050 55 244 1.7 6.1 0.25 0.55 0.55 98 990.2
20221128023548 55 196 2.6 5.2 0.23 0.52 0.52 98 990.6
20221128023058 55 155 1.7 7.0 0.21 0.50 0.50 98 991.0
20221128022547 55 204 1.7 8.7 0.15 0.44 0.44 98 991.3
20221128022047 55 267 1.7 8.7 0.12 0.41 0.41 98 991.3
20221128021557 55 198 1.7 6.1 0.09 0.38 0.38 98 991.7
20221128021043 55 249 0.0 6.1 0.08 0.37 0.37 98 992.0
20221128020542 55 224 1.7 6.1 0.07 0.36 0.36 98 992.0
20221128020046 55 211 1.7 7.8 0.06 0.35 0.35 98 991.8
20221128015541 54 202 0.9 7.8 0.06 0.35 0.35 98 991.9
20221128015040 54 211 2.6 7.0 0.06 0.35 0.35 98 992.0
20221128014542 54 271 2.6 7.8 0.04 0.33 0.33 98 992.3
20221128014038 54 248 1.7 9.6 0.01 0.30 0.30 98 993.0
20221128013539 54 202 3.5 9.6 0.00 0.28 0.28 98 992.7
20221128013041 53 27 0.9 7.8 0.00 0.28 0.28 98 993.0
20221128012535 53 207 0.9 6.1 0.00 0.28 0.28 98 993.2
20221128012034 53 246 0.9 6.1 0.00 0.28 0.28 98 993.3
20221128011533 53 207 1.7 7.8 0.00 0.28 0.28 98 993.3
20221128011031 53 236 1.7 7.8 0.00 0.28 0.28 97 993.6
20221128010530 53 269 1.7 5.2 0.00 0.28 0.28 97 993.9
20221128010035 53 234 1.7 6.1 0.00 0.28 0.28 97 994.2
20221128005529 52 172 0.9 7.0 0.00 0.28 0.28 97 994.2
20221128005027 52 289 0.0 8.7 0.01 0.28 0.28 97 994.4
20221128004531 52 221 0.0 8.7 0.01 0.28 0.28 97 994.9
20221128004025 52 195 0.9 8.7 0.01 0.28 0.28 97 995.3
20221128003524 52 206 0.0 7.8 0.01 0.28 0.28 97 995.5
20221128003023 52 225 0.0 13.0 0.01 0.28 0.28 97 995.7
20221128002522 52 190 3.5 13.0 0.01 0.28 0.28 97 995.8
20221128002024 52 231 2.6 6.1 0.01 0.28 0.28 97 995.9
20221128001521 52 205 1.7 7.8 0.01 0.28 0.28 97 996.2
20221128001022 52 206 3.5 7.8 0.01 0.28 0.28 97 996.4
20221128000518 52 202 0.9 7.0 0.01 0.28 0.28 97 996.6
20221128000020 52 55 1.7 7.0 0.01 0.28 0.28 97 996.8
20221127235518 51 248 2.6 6.1 0.01 0.28 0.28 97 996.7
20221127235016 51 122 0.9 3.5 0.01 0.28 0.28 97 996.8
20221127234516 51 321 0.0 5.2 0.01 0.28 0.28 97 997.2
20221127234014 51 168 0.9 7.0 0.01 0.28 0.28 98 997.4
20221127233513 51 217 1.7 7.0 0.02 0.28 0.28 98 997.6
20221127233014 51 245 0.9 7.0 0.03 0.28 0.28 98 998.1
20221127232513 50 197 0.9 3.5 0.03 0.28 0.28 98 998.1
20221127232012 50 219 0.0 4.3 0.04 0.28 0.28 98 998.1
20221127231513 50 219 0.0 4.3 0.05 0.28 0.28 98 998.2
20221127231012 50 248 0.0 4.3 0.07 0.28 0.28 98 998.8
20221127230516 50 248 0.0 4.3 0.07 0.28 0.28 98 999.5
20221127230015 49 269 0.9 5.2 0.09 0.28 0.28 98 998.8
20221127225513 49 61 0.0 2.6 0.11 0.28 0.28 98 998.0
20221127225010 48 209 0.0 2.6 0.12 0.27 0.27 98 998.7
20221127224508 47 246 0.0 0.9 0.13 0.27 0.27 98 999.1
20221127224007 47 202 0.0 0.0 0.14 0.27 0.27 97 999.6
20221127223506 46 202 0.0 0.0 0.15 0.26 0.26 97 1000.2
20221127223009 46 202 0.0 0.0 0.15 0.25 0.25 96 1000.6
20221127222503 46 202 0.0 0.0 0.16 0.25 0.25 96 1001.0
20221127222003 46 202 0.0 0.0 0.16 0.24 0.24 96 1001.2
20221127221500 46 202 0.0 0.0 0.16 0.23 0.23 96 1001.4
20221127221102 46 202 0.0 0.0 0.15 0.21 0.21 96 1001.6
20221127220601 46 202 0.0 0.0 0.15 0.21 0.21 96 1001.7
20221127220102 46 202 0.0 0.0 0.14 0.19 0.19 96 1001.9
20221127215558 45 202 0.0 0.0 0.13 0.18 0.18 95 1002.0
20221127215056 45 202 0.0 0.0 0.11 0.15 0.15 95 1002.2
20221127214558 45 202 0.0 0.0 0.10 0.14 0.14 95 1002.2
20221127214055 45 202 0.0 0.0 0.09 0.13 0.13 95 1002.4
20221127213555 45 202 0.0 0.0 0.08 0.11 0.11 94 1002.5
20221127213056 45 202 0.0 0.0 0.07 0.10 0.10 94 1002.6
20221127212557 45 202 0.0 0.0 0.07 0.09 0.09 94 1002.7
20221127212054 45 202 0.0 0.0 0.07 0.08 0.08 93 1002.6
20221127211555 45 202 0.0 0.0 0.06 0.07 0.07 93 1002.8
20221127211052 45 202 0.0 0.0 0.05 0.06 0.06 92 1003.0
20221127210553 45 202 0.0 0.0 0.05 0.06 0.06 92 1002.9
20221127210056 45 202 0.0 0.0 0.04 0.05 0.05 91 1002.9
20221127205654 46 202 0.0 0.0 0.04 0.05 0.05 91 1002.7
20221127205052 46 202 0.0 0.0 0.04 0.04 0.04 90 1002.9
20221127204551 46 202 0.0 0.0 0.04 0.04 0.04 90 1002.7
20221127204051 46 202 0.0 0.0 0.04 0.04 0.04 89 1002.6
20221127203550 46 202 0.0 0.0 0.03 0.03 0.03 88 1002.7
20221127203103 46 202 0.0 0.0 0.03 0.03 0.03 87 1002.5
20221127202549 47 202 0.0 0.0 0.02 0.02 0.02 85 1002.6
20221127202052 47 202 0.0 0.0 0.01 0.01 0.01 84 1002.6
20221127201549 48 202 0.0 0.0 0.01 0.01 0.01 82 1002.6
20221127201048 49 202 0.0 0.0 0.01 0.01 0.01 80 1002.6
20221127200547 49 202 0.0 0.0 0.01 0.01 0.01 76 1002.8
20221127200047 50 202 0.0 0.0 0.01 0.01 0.01 72 1003.1
20221127195546 51 202 0.0 1.7 0.00 0.00 0.00 67 1003.1
20221127195046 51 202 0.0 1.7 0.00 0.00 0.00 63 1003.3
20221127194545 51 202 0.0 1.7 0.00 0.00 0.00 59 1003.3
20221127194045 51 202 0.0 0.9 0.00 0.00 0.00 57 1003.4
20221127193546 51 202 0.0 0.0 0.00 0.00 0.00 58 1003.3
20221127193047 52 202 0.0 0.0 0.00 0.00 0.00 56 1003.5
20221127192544 52 202 0.0 0.0 0.00 0.00 0.00 54 1003.7
20221127192044 52 202 0.0 0.0 0.00 0.00 0.00 54 1003.6
20221127191544 52 202 0.0 0.0 0.00 0.00 0.00 55 1003.6
20221127191042 52 202 0.0 1.7 0.00 0.00 0.00 55 1003.6
20221127190541 52 202 0.0 1.7 0.00 0.00 0.00 54 1003.8
20221127190044 52 202 0.0 0.0 0.00 0.00 0.00 54 1003.8
20221127185541 52 202 0.0 0.0 0.00 0.00 0.00 54 1003.9
20221127185040 52 202 0.0 1.7 0.00 0.00 0.00 52 1003.9
20221127184539 52 202 0.0 1.7 0.00 0.00 0.00 52 1004.4
20221127184041 52 202 0.0 2.6 0.00 0.00 0.00 52 1004.4
20221127183540 52 202 0.0 2.6 0.00 0.00 0.00 50 1004.5
20221127183039 52 202 0.9 2.6 0.00 0.00 0.00 50 1004.4
20221127182541 52 241 0.0 2.6 0.00 0.00 0.00 51 1004.4
20221127182037 53 257 0.0 1.7 0.00 0.00 0.00 51 1004.5
20221127181551 53 257 0.0 2.6 0.00 0.00 0.00 51 1004.6
20221127181037 53 262 0.0 2.6 0.00 0.00 0.00 52 1004.8
20221127180538 53 262 0.0 0.0 0.00 0.00 0.00 51 1004.8
20221127180042 53 262 0.0 0.9 0.00 0.00 0.00 50 1004.9
20221127175534 53 262 0.0 1.7 0.00 0.00 0.00 48 1005.0
20221127175033 52 262 0.0 1.7 0.00 0.00 0.00 51 1004.9
20221127174538 52 263 0.0 2.6 0.00 0.00 0.00 49 1005.1
20221127174032 52 263 0.0 2.6 0.00 0.00 0.00 49 1005.2
20221127173530 51 259 0.0 0.9 0.00 0.00 0.00 51 1005.3
20221127173036 51 259 0.0 1.7 0.00 0.00 0.00 54 1005.4
20221127172530 51 259 0.0 1.7 0.00 0.00 0.00 56 1005.4
20221127172029 51 256 0.0 0.9 0.00 0.00 0.00 56 1005.5
20221127171533 51 256 0.0 0.9 0.00 0.00 0.00 57 1005.5
20221127171028 51 256 0.0 0.9 0.00 0.00 0.00 57 1005.8
20221127170528 51 256 0.0 0.0 0.00 0.00 0.00 56 1005.6
20221127170027 51 256 0.0 0.0 0.00 0.00 0.00 57 1005.7
20221127165527 51 256 0.0 0.0 0.00 0.00 0.00 56 1006.0
20221127165027 51 256 0.0 1.7 0.00 0.00 0.00 55 1006.2
20221127164532 51 256 0.0 1.7 0.00 0.00 0.00 53 1006.4
20221127164023 51 257 0.0 0.9 0.00 0.00 0.00 55 1006.5
20221127163523 51 254 0.0 0.9 0.00 0.00 0.00 53 1006.6
20221127163024 51 254 0.0 0.9 0.00 0.00 0.00 55 1006.7
20221127162522 51 254 0.0 0.0 0.00 0.00 0.00 57 1006.6
20221127162020 51 254 0.0 1.7 0.00 0.00 0.00 54 1006.9
20221127161530 51 254 0.0 1.7 0.00 0.00 0.00 58 1007.1
20221127161018 51 254 0.0 1.7 0.00 0.00 0.00 53 1007.1
20221127160521 51 244 0.0 1.7 0.00 0.00 0.00 54 1007.1
20221127160018 50 240 0.0 1.7 0.00 0.00 0.00 54 1007.1
20221127155516 50 240 0.0 2.6 0.00 0.00 0.00 54 1007.3
20221127155016 50 240 0.0 2.6 0.00 0.00 0.00 54 1007.5
20221127154533 50 240 0.0 2.6 0.00 0.00 0.00 54 1007.5
20221127154014 50 220 0.0 1.7 0.00 0.00 0.00 55 1007.6
20221127153513 50 193 0.0 1.7 0.00 0.00 0.00 56 1007.7
20221127153013 49 193 0.0 2.6 0.00 0.00 0.00 56 1007.7
20221127152512 49 193 0.9 2.6 0.00 0.00 0.00 57 1007.7
20221127152014 49 193 0.0 1.7 0.00 0.00 0.00 57 1007.7
20221127151509 48 193 0.0 1.7 0.00 0.00 0.00 56 1007.7
20221127151009 48 193 0.0 0.9 0.00 0.00 0.00 57 1007.8
20221127150509 48 192 0.0 0.0 0.00 0.00 0.00 59 1008.1
20221127150006 47 192 0.0 1.7 0.00 0.00 0.00 61 1007.9
20221127145505 47 192 0.0 1.7 0.00 0.00 0.00 63 1007.7
20221127145004 47 192 0.0 1.7 0.00 0.00 0.00 65 1007.8
20221127144513 46 178 0.0 1.7 0.00 0.00 0.00 66 1007.9
20221127144003 46 178 0.0 0.9 0.00 0.00 0.00 65 1008.0
20221127143502 45 178 0.0 0.0 0.00 0.00 0.00 68 1008.0
20221127143002 45 178 0.0 0.9 0.00 0.00 0.00 69 1007.9
20221127142502 45 178 0.0 0.9 0.00 0.00 0.00 71 1007.8
20221127142001 44 178 0.0 0.9 0.00 0.00 0.00 71 1007.8
20221127141605 44 178 0.0 0.9 0.00 0.00 0.00 74 1007.8
20221127141100 44 178 0.0 0.9 0.00 0.00 0.00 74 1007.9
20221127140559 43 178 0.0 0.9 0.00 0.00 0.00 74 1008.0
20221127140100 43 178 0.0 0.0 0.00 0.00 0.00 75 1007.9
20221127135558 43 178 0.0 0.0 0.00 0.00 0.00 77 1008.1
20221127135056 42 178 0.0 0.0 0.00 0.00 0.00 79 1008.1
20221127134557 42 178 0.0 0.0 0.00 0.00 0.00 80 1008.1
20221127134056 41 178 0.0 0.0 0.00 0.00 0.00 81 1008.1
20221127133557 41 178 0.0 0.0 0.00 0.00 0.00 81 1008.2
20221127133109 40 178 0.0 0.0 0.00 0.00 0.00 81 1008.4
20221127132553 39 178 0.0 0.0 0.00 0.00 0.00 82 1008.5
20221127132052 39 178 0.0 0.0 0.00 0.00 0.00 83 1008.7
20221127131550 38 178 0.0 0.0 0.00 0.00 0.00 83 1008.8
20221127131049 38 178 0.0 0.0 0.00 0.00 0.00 83 1008.9
20221127130551 37 178 0.0 0.0 0.00 0.00 0.00 84 1008.9
20221127130049 37 178 0.0 0.0 0.00 0.00 0.00 84 1009.0
20221127125548 36 178 0.0 0.0 0.00 0.00 0.00 84 1009.0
20221127125047 36 178 0.0 0.0 0.00 0.00 0.00 85 1009.0
20221127124548 36 178 0.0 0.0 0.00 0.00 0.00 84 1009.1
20221127124047 36 178 0.0 0.0 0.00 0.00 0.00 83 1009.1
20221127123547 35 178 0.0 0.0 0.00 0.00 0.00 83 1009.1
20221127123049 35 178 0.0 0.0 0.00 0.00 0.00 83 1009.2
20221127122547 35 178 0.0 0.0 0.00 0.00 0.00 84 1009.2
20221127122046 35 178 0.0 0.0 0.00 0.00 0.00 84 1009.2
20221127121602 35 178 0.0 0.0 0.00 0.00 0.00 84 1009.2
20221127121045 35 178 0.0 0.0 0.00 0.00 0.00 84 1009.2
20221127120545 34 178 0.0 0.0 0.00 0.00 0.00 84 1009.2
20221127120045 34 178 0.0 0.0 0.00 0.00 0.00 85 1009.2
20221127115544 34 178 0.0 0.0 0.00 0.00 0.00 85 1009.2
20221127115044 34 178 0.0 0.0 0.00 0.00 0.00 86 1009.3
20221127114559 34 178 0.0 0.0 0.00 0.00 0.00 86 1009.3
20221127114044 34 178 0.0 0.0 0.00 0.00 0.00 87 1009.3
20221127113544 33 178 0.0 0.0 0.00 0.00 0.00 87 1009.2
20221127113043 33 178 0.0 0.0 0.00 0.00 0.00 86 1009.2
20221127112542 33 178 0.0 0.0 0.00 0.00 0.00 86 1009.2
20221127112043 33 178 0.0 0.0 0.00 0.00 0.00 85 1009.2
20221127111542 33 178 0.0 0.0 0.00 0.00 0.00 85 1009.2
20221127111041 34 178 0.0 0.0 0.00 0.00 0.00 85 1009.1
20221127110541 34 178 0.0 0.0 0.00 0.00 0.00 84 1009.2
20221127110041 34 178 0.0 0.0 0.00 0.00 0.00 84 1009.2
20221127105540 34 178 0.0 0.0 0.00 0.00 0.00 85 1009.1
20221127105039 34 178 0.0 0.0 0.00 0.00 0.00 85 1009.2
20221127104539 34 178 0.0 0.0 0.00 0.00 0.00 85 1009.2
20221127104038 34 178 0.0 0.0 0.00 0.00 0.00 85 1009.0
20221127103538 34 178 0.0 0.0 0.00 0.00 0.00 85 1009.0
20221127103041 35 178 0.0 0.0 0.00 0.00 0.00 85 1009.0
20221127102540 35 178 0.0 0.0 0.00 0.00 0.00 85 1009.0
20221127102038 35 178 0.0 0.0 0.00 0.00 0.00 85 1009.1
20221127101542 34 178 0.0 0.0 0.00 0.00 0.00 85 1009.1
20221127101036 34 178 0.0 0.0 0.00 0.00 0.00 85 1009.1
20221127100536 34 178 0.0 0.0 0.00 0.00 0.00 85 1009.1
20221127100038 34 178 0.0 0.0 0.00 0.00 0.00 84 1009.1
20221127095534 34 178 0.0 0.0 0.00 0.00 0.00 85 1009.1
20221127095035 35 178 0.0 0.0 0.00 0.00 0.00 84 1009.1
20221127094542 35 178 0.0 0.0 0.00 0.00 0.00 84 1009.0
20221127094035 35 178 0.0 0.0 0.00 0.00 0.00 84 1009.0
20221127093534 35 178 0.0 0.0 0.00 0.00 0.00 84 1009.0
20221127093033 35 178 0.0 0.0 0.00 0.00 0.00 83 1009.0
20221127092532 35 178 0.0 0.0 0.00 0.00 0.00 83 1009.2
20221127092031 35 178 0.0 0.0 0.00 0.00 0.00 83 1009.2
20221127091532 35 178 0.0 0.0 0.00 0.00 0.00 84 1009.3
20221127091030 35 178 0.0 0.0 0.00 0.00 0.00 83 1009.2
20221127090530 35 178 0.0 0.0 0.00 0.00 0.00 83 1009.2
20221127090030 35 178 0.0 0.0 0.00 0.00 0.00 83 1009.2
20221127085529 35 178 0.0 0.0 0.00 0.00 0.00 81 1009.2
20221127085027 36 178 0.0 0.0 0.00 0.00 0.00 80 1009.4
20221127084528 36 178 0.0 0.0 0.00 0.00 0.00 80 1009.3
20221127084026 36 178 0.0 0.0 0.00 0.00 0.00 79 1009.4
20221127083525 36 178 0.0 0.0 0.00 0.00 0.00 79 1009.3
20221127083025 37 178 0.0 0.0 0.00 0.00 0.00 78 1009.3
20221127082523 37 178 0.0 0.0 0.00 0.00 0.00 77 1009.4
20221127082022 37 178 0.0 0.0 0.00 0.00 0.00 76 1009.6
20221127081525 37 178 0.0 0.0 0.00 0.00 0.00 76 1009.7
20221127081023 38 178 0.0 0.0 0.00 0.00 0.00 76 1009.7